RPi & Temperatures at JO21ut

Last graph updates: Saturday 24 February 2018 16:02 CET

Sunrise: 07:30 & Sunset: 18:10 The Sun is currently visible at an elevation of 11.49 degrees and azimut of 238 and 148080799 Km from the Earth
Moonrise: 11:58 & Moonset: 2:56 Quarter Moon The Moon is 364277 Km from the Earth
Find here more details on MARS.

16:41:33 up 30 days, 6:53, 0 users, load average: 0.74, 0.45, 0.39
Current CPU frequency is: 1000 Mhz
Current GPU temperature: 23.406°C
Current inside temperature is 14.5°C with a humidity of 53.4%
Second inside temperature is 14.5°C with a pressure of 1021.85 Hpa (29.94 inHg) and an uncorrected altitude of -71.60 m
ds18b20 now showing 14.4°C

All the sensors I use, DHT22 | BMP085 | MPU6050 | BH1750FVI | MMA7455 | HMC5883L | MPL3115A2 | DS1307 | HTU21 | AM2321 | DS3231 | INA219 , and it's current readout can be viewed here please be patient as it needs to read all sensors data. The page loads after about 10 seconds. In our forum more details can be found such as the used software/sources. Feel free to add yours also..


Pressure BMP085
Pressure BMP085
Pressure BMP085
Pressure BMP085
PI CPU Temp
Inet Volkel temp
Inside temp BMP085
Humidity BMP085
PI CPU Temp
Inet Volkel temp
Inside temp BMP085
Humidity BMP085
PI CPU Temp
Inet Volkel temp
Inside temp BMP085
Humidity BMP085
PI CPU Temp
Inet Volkel temp
Inside temp BMP085
Humidity BMP085
PI CPU Temp
Inet Volkel temp
Inside temp BMP085
Humidity BMP085
Inside light BH1750FV
Inside light BH1750FV
Inside light BH1750FV
Inside light BH1750FV
Inside light BH1750FV
Inside light BH1750FV
Sunlight hours
 

Sun & Moon height


Wijchen weather

Weer Widget
ScreenSaver yr.no

Sun Moon Earth


EHEH 241525Z AUTO 06016KT 030V100 9999 OVC180 03/M06 Q1024 BLU 06015G30KT CAVOK EHEH 241525Z AUTO 06016KT 030V100 9999 OVC180 03/M06 Q1024 BLU 06015G30KT CAVOK EHEH 241525Z AUTO 06016KT 030V100 9999 OVC180 03/M06 Q1024 BLU 06015G30KT CAVOK

Weather data from Volkel [NL] EHVK


17 minutes ago, at 15:25 UTC, the wind was blowing at a speed of 7.7 meters per second (17.3 miles per hour/15 knots), with gusts to 15.4 meters per second (34.5 miles per hour/15 knots), from East/Northeast (060) in Volkel [EHVK], Netherlands. The temperature was 3 °C (37 °F) with a dewpoint of -6 °C (21 °F), the windchill was -3 °C (27 °F) and the pressure was 1,024 hPa (30.24 inHg). The relative humidity was 51.5%. There are no clouds below 1,524 meter (5,000 feet). The visibility was >10 kilometers (>6.2 miles).




View code:

Contact me  |  My Raspberry PI forum